Kirby Moran — WDH9735 — position and weather

sailwx.info

Track history (hours):
 
Tides and Currents Weather Stations Pressure Air Temp Water Temp Dewpoint Dewpoint Depression Visibility Wind Speed Wind Dir Waves Ship Positions

Kirby Moran

Owner: Moran Towing Corporation, New Canaan, CT. More information available from US FCC via Universal Licensing System and Coast Guard Vessel Documentation Center.

Last reported at 2018-Jun-18 17:14 UTC. Time now 2018-Jun-23 14:16 UTC.
Position N 40°38' W 074°08'.

Length 28 m; draft 5.2 m.

Type: Tug. MMSI: 367671080.

Date/timePositionNaut miles runAvg speedWind from/ knotsBaromVisibWave heightAir tempDewpointWater temp
2018-Jun-18 17:14N 40°38' W 074°08'0 0.0
2018-Jun-18 07:29N 40°38' W 074°08'3 5.9
2018-Jun-18 07:00N 40°39' W 074°04'1 1.8
2018-Jun-18 06:30N 40°40' W 074°04'1 1.0
2018-Jun-18 06:00N 40°40' W 074°05'0 0.0
2018-Jun-18 05:30N 40°40' W 074°05'2 4.5
2018-Jun-18 04:58N 40°39' W 074°07'1 0.1
2018-Jun-17 22:42N 40°38' W 074°08'0 0.0
2018-Jun-17 22:30N 40°38' W 074°08'1 0.2
2018-Jun-17 16:17N 40°39' W 074°09'2 2.1
2018-Jun-17 15:18N 40°41' W 074°09'2 5.3
2018-Jun-17 14:59N 40°39' W 074°09'1 1.0
2018-Jun-17 13:54N 40°38' W 074°08'0 0.0
2018-Jun-17 13:27N 40°38' W 074°08'0 0.0
2018-Jun-17 12:57N 40°38' W 074°08'0 0.0
2018-Jun-17 12:15N 40°38' W 074°08'0 0.0
2018-Jun-17 12:01N 40°38' W 074°08'0 0.0
2018-Jun-17 11:19N 40°38' W 074°08'0 0.0
2018-Jun-17 11:00N 40°38' W 074°08'0 0.0
2018-Jun-17 10:31N 40°38' W 074°08'0 0.0
2018-Jun-17 09:59N 40°38' W 074°08'0 0.0
2018-Jun-17 09:29N 40°38' W 074°08'0 0.0
2018-Jun-17 09:00N 40°38' W 074°08'0 0.0
2018-Jun-17 08:30N 40°38' W 074°08'0 0.0
2018-Jun-17 08:00N 40°38' W 074°08'0 0.0
2018-Jun-17 07:31N 40°38' W 074°08'0 0.0
2018-Jun-17 07:01N 40°38' W 074°08'0 0.0
2018-Jun-17 06:28N 40°38' W 074°08'0 0.0
2018-Jun-17 06:00N 40°38' W 074°08'0 0.0
2018-Jun-17 05:31N 40°38' W 074°08'0 0.0
2018-Jun-17 05:00N 40°38' W 074°08'0 0.0
2018-Jun-17 04:30N 40°38' W 074°08'0 0.0
2018-Jun-17 04:00N 40°38' W 074°08'0 0.0
2018-Jun-17 03:31N 40°38' W 074°08'1 1.2
2018-Jun-17 02:58N 40°39' W 074°07'2 2.9
2018-Jun-17 02:24N 40°40' W 074°09'1 2.1
2018-Jun-17 02:00N 40°41' W 074°09'0 0.2
2018-Jun-17 01:18N 40°41' W 074°09'0 1.5
2018-Jun-17 01:00N 40°40' W 074°08'2 1.7
2018-Jun-16 23:52N 40°38' W 074°08'0 0.0
2018-Jun-16 23:27N 40°38' W 074°08'0 0.0
2018-Jun-16 22:55N 40°38' W 074°08'0 0.0
2018-Jun-16 22:29N 40°38' W 074°08'0 0.0
2018-Jun-16 21:58N 40°38' W 074°08'0 0.0
2018-Jun-16 21:30N 40°38' W 074°08'0 0.0
2018-Jun-16 20:58N 40°38' W 074°08'0 0.0
2018-Jun-16 20:31N 40°38' W 074°08'0 0.0
2018-Jun-16 19:59N 40°38' W 074°08'0 0.0
2018-Jun-16 19:30N 40°38' W 074°08'0 0.0
2018-Jun-16 19:00N 40°38' W 074°08'1 2.0
2018-Jun-16 18:30N 40°39' W 074°09'1 3.0
2018-Jun-16 18:00N 40°40' W 074°08'1 1.3
2018-Jun-16 17:30N 40°41' W 074°09'0 0.0
2018-Jun-16 17:00N 40°41' W 074°09'0 0.1
2018-Jun-16 16:19N 40°41' W 074°09'1 3.5
2018-Jun-16 15:59N 40°40' W 074°09'1 2.8
2018-Jun-16 15:30N 40°41' W 074°09'1 1.7
2018-Jun-16 15:00N 40°40' W 074°08'2 3.4
2018-Jun-16 14:30N 40°39' W 074°08'3 6.3
2018-Jun-16 14:00N 40°39' W 074°04'3 5.8
2018-Jun-16 13:31N 40°37' W 074°03'4 7.8
2018-Jun-16 12:59N 40°39' W 074°07'0 0.3
2018-Jun-16 11:17N 40°38' W 074°08'310.6
2018-Jun-16 11:00N 40°39' W 074°04'1 2.4
2018-Jun-16 10:30N 40°40' W 074°05'0 0.3
2018-Jun-16 10:00N 40°40' W 074°05'2 4.4
2018-Jun-16 09:30N 40°39' W 074°07'1 1.4
2018-Jun-16 09:00N 40°38' W 074°08'0 0.0
2018-Jun-16 08:29N 40°38' W 074°08'0 0.0
2018-Jun-16 08:00N 40°38' W 074°08'0 0.0
2018-Jun-16 07:30N 40°38' W 074°08'0 0.0
2018-Jun-16 06:59N 40°38' W 074°08'0 0.0
2018-Jun-16 06:30N 40°38' W 074°08'0 0.0
2018-Jun-16 06:00N 40°38' W 074°08'0 0.0
2018-Jun-16 05:29N 40°38' W 074°08'0 0.0
2018-Jun-16 05:00N 40°38' W 074°08'0 0.0
2018-Jun-16 04:30N 40°38' W 074°08'0 0.0
2018-Jun-16 03:57N 40°38' W 074°08'3 7.3
2018-Jun-16 03:30N 40°38' W 074°12'0 0.0
2018-Jun-16 02:58N 40°38' W 074°12'1 1.2
2018-Jun-16 02:07N 40°39' W 074°11'1 5.0
2018-Jun-16 01:56N 40°39' W 074°10'3 6.3
2018-Jun-16 01:30N 40°39' W 074°06'3 5.0
2018-Jun-16 01:00N 40°38' W 074°03'0 0.0
2018-Jun-16 00:30N 40°38' W 074°04'3 5.5
2018-Jun-16 00:00N 40°39' W 074°07'1 1.6
2018-Jun-15 23:30N 40°38' W 074°08'0 0.0
2018-Jun-15 22:59N 40°38' W 074°08'0 0.0
2018-Jun-15 22:30N 40°38' W 074°08'0 0.0
2018-Jun-15 22:00N 40°38' W 074°08'0 0.0
2018-Jun-15 21:30N 40°38' W 074°08'0 0.0
2018-Jun-15 20:59N 40°38' W 074°08'0 0.0
2018-Jun-15 20:30N 40°38' W 074°08'0 0.0
2018-Jun-15 20:00N 40°38' W 074°08'0 0.0
2018-Jun-15 19:30N 40°38' W 074°08'0 0.0
2018-Jun-15 19:00N 40°38' W 074°08'0 0.0
2018-Jun-15 18:30N 40°38' W 074°08'0 0.0
2018-Jun-15 17:59N 40°38' W 074°08'0 0.0
2018-Jun-15 17:29N 40°38' W 074°08'0 0.5
2018-Jun-15 16:59N 40°39' W 074°08'1 1.4
2018-Jun-15 16:13N 40°39' W 074°09'1 3.5
2018-Jun-15 16:00N 40°39' W 074°09'3 5.9
2018-Jun-15 15:30N 40°39' W 074°05'2 3.9
2018-Jun-15 15:00N 40°38' W 074°03'1 2.1
2018-Jun-15 14:30N 40°39' W 074°04'1 2.4
2018-Jun-15 13:59N 40°39' W 074°05'0 0.9
2018-Jun-15 13:30N 40°39' W 074°05'1 2.6
2018-Jun-15 13:01N 40°38' W 074°03'3 6.8
2018-Jun-15 12:30N 40°38' W 074°08'0 0.0
2018-Jun-15 12:00N 40°38' W 074°08'0 0.0
2018-Jun-15 11:30N 40°38' W 074°08'0 0.0
2018-Jun-15 10:59N 40°38' W 074°08'0 0.0
2018-Jun-15 10:30N 40°38' W 074°08'1 1.6
2018-Jun-15 10:00N 40°39' W 074°09'2 4.3
2018-Jun-15 09:27N 40°41' W 074°09'0 0.9
2018-Jun-15 09:00N 40°41' W 074°09'2 4.2
2018-Jun-15 08:29N 40°38' W 074°09'3 5.4
2018-Jun-15 08:00N 40°39' W 074°05'3 6.6
2018-Jun-15 07:30N 40°36' W 074°03'3 6.4
2018-Jun-15 07:00N 40°39' W 074°05'2 4.2
2018-Jun-15 06:29N 40°38' W 074°08'0 0.0
2018-Jun-15 06:00N 40°38' W 074°08'1 2.9
2018-Jun-15 05:29N 40°40' W 074°08'1 2.8
2018-Jun-15 05:00N 40°41' W 074°09'0 0.4
2018-Jun-15 04:30N 40°41' W 074°09'3 5.1
2018-Jun-15 03:59N 40°38' W 074°08'0 0.0
2018-Jun-15 02:31N 40°38' W 074°08'0 0.0
2018-Jun-15 02:20N 40°38' W 074°08'0 0.0
2018-Jun-15 01:55N 40°38' W 074°08'0 0.0
2018-Jun-15 01:22N 40°38' W 074°08'1 1.0
2018-Jun-15 00:24N 40°39' W 074°07'2 5.3
2018-Jun-15 00:01N 40°40' W 074°05'1 2.1
2018-Jun-14 23:31N 40°40' W 074°03'1 2.6
2018-Jun-14 23:01N 40°40' W 074°05'2 4.2
2018-Jun-14 22:30N 40°39' W 074°07'1 1.5
2018-Jun-14 22:00N 40°38' W 074°08'1 0.5
2018-Jun-14 20:07N 40°39' W 074°07'1 7.3
2018-Jun-14 19:57N 40°39' W 074°08'2 4.1
2018-Jun-14 19:30N 40°40' W 074°08'1 1.7
2018-Jun-14 19:00N 40°41' W 074°09'0 0.8
2018-Jun-14 18:29N 40°41' W 074°09'2 4.7
2018-Jun-14 18:00N 40°38' W 074°08'1 2.5
2018-Jun-14 17:26N 40°40' W 074°09'0 0.4
2018-Jun-14 16:41N 40°40' W 074°09'0 0.4
2018-Jun-14 16:30N 40°40' W 074°09'1 2.9
2018-Jun-14 16:00N 40°39' W 074°08'3 5.8
2018-Jun-14 15:31N 40°39' W 074°04'0 0.6
2018-Jun-14 14:52N 40°39' W 074°04'4 7.6
2018-Jun-14 14:21N 40°41' W 074°08'0 0.9
2018-Jun-14 14:00N 40°41' W 074°09'0 0.0
2018-Jun-14 13:30N 40°41' W 074°09'1 1.9
2018-Jun-14 13:01N 40°40' W 074°08'2 2.8
2018-Jun-14 12:22N 40°39' W 074°06'2 5.1
2018-Jun-14 12:00N 40°39' W 074°04'3 5.0
2018-Jun-14 11:30N 40°37' W 074°03'4 7.5
2018-Jun-14 11:00N 40°39' W 074°07'1 1.2
2018-Jun-14 10:24N 40°38' W 074°08'0 0.0
2018-Jun-14 09:59N 40°38' W 074°08'0 0.0
2018-Jun-14 09:30N 40°38' W 074°08'0 0.0
2018-Jun-14 08:58N 40°38' W 074°08'0 0.0
2018-Jun-14 08:09N 40°38' W 074°08'0 0.0
2018-Jun-14 07:59N 40°38' W 074°08'0 0.0
2018-Jun-14 06:35N 40°38' W 074°08'0 0.0
2018-Jun-14 06:18N 40°38' W 074°08'0 0.0
2018-Jun-14 03:38N 40°38' W 074°08'0 0.0
2018-Jun-14 03:17N 40°38' W 074°08'2 0.5
2018-Jun-14 00:02N 40°39' W 074°06'010.7
2018-Jun-14 00:00N 40°39' W 074°05'1 2.7
2018-Jun-13 23:30N 40°40' W 074°04'1 1.3
2018-Jun-13 23:00N 40°40' W 074°05'2 4.7
2018-Jun-13 22:29N 40°39' W 074°07'0 0.6
2018-Jun-13 22:00N 40°38' W 074°08'0 0.0
2018-Jun-13 21:25N 40°38' W 074°08'0 0.0
2018-Jun-13 21:00N 40°38' W 074°08'0 0.0
2018-Jun-13 20:30N 40°38' W 074°08'0 0.0
2018-Jun-13 19:59N 40°38' W 074°08'0 0.0
2018-Jun-13 19:30N 40°38' W 074°08'0 0.0
2018-Jun-13 19:00N 40°38' W 074°08'0 0.0
2018-Jun-13 18:30N 40°38' W 074°08'0 0.0
2018-Jun-13 18:00N 40°39' W 074°08'0 0.0
2018-Jun-13 17:30N 40°39' W 074°08'0 0.0
2018-Jun-13 17:00N 40°39' W 074°08'0 0.0
2018-Jun-13 16:28N 40°39' W 074°08'0 0.0
2018-Jun-13 15:55N 40°39' W 074°08'0 0.0
2018-Jun-13 15:22N 40°39' W 074°08'0 0.0
2018-Jun-13 14:58N 40°39' W 074°08'0 0.0
2018-Jun-13 14:29N 40°39' W 074°08'1 1.4
2018-Jun-13 14:00N 40°38' W 074°09'2 1.1
2018-Jun-13 12:09N 40°39' W 074°11'2 5.0
2018-Jun-13 11:45N 40°39' W 074°09'3 6.2
2018-Jun-13 11:20N 40°39' W 074°05'2 6.0
2018-Jun-13 11:00N 40°38' W 074°03'1 1.8
2018-Jun-13 10:30N 40°37' W 074°03'3 5.7
2018-Jun-13 09:59N 40°40' W 074°04'0 0.0
2018-Jun-13 09:18N 40°40' W 074°04'1 2.0
2018-Jun-13 09:00N 40°40' W 074°05'0 0.2
2018-Jun-13 08:30N 40°40' W 074°05'2 3.6
2018-Jun-13 08:01N 40°39' W 074°03'1 1.8
2018-Jun-13 07:30N 40°38' W 074°04'2 3.1
2018-Jun-13 07:00N 40°39' W 074°05'3 2.5
2018-Jun-13 05:59N 40°40' W 074°08'1 1.6
2018-Jun-13 05:30N 40°41' W 074°09'0 0.0
2018-Jun-13 04:54N 40°41' W 074°09'1 3.3
2018-Jun-13 04:30N 40°40' W 074°09'1 0.8
2018-Jun-13 03:01N 40°38' W 074°08'0 0.1
2018-Jun-13 02:57N 40°38' W 074°08'0 0.0
2018-Jun-13 00:17N 40°38' W 074°08'0 0.0
2018-Jun-12 23:25N 40°38' W 074°08'1 2.1
2018-Jun-12 23:00N 40°39' W 074°07'0 0.1
2018-Jun-12 22:30N 40°39' W 074°07'0 0.0
2018-Jun-12 22:01N 40°39' W 074°07'1 2.9
2018-Jun-12 21:30N 40°39' W 074°05'1 2.6
2018-Jun-12 21:01N 40°40' W 074°05'1 1.0
2018-Jun-12 20:28N 40°40' W 074°04'3 6.4
2018-Jun-12 20:00N 40°37' W 074°03'3 5.1
2018-Jun-12 19:30N 40°39' W 074°06'2 0.5
2018-Jun-12 16:22N 40°38' W 074°08'0 0.0
2018-Jun-12 15:58N 40°38' W 074°08'0 0.0
2018-Jun-12 15:22N 40°38' W 074°08'0 0.0
2018-Jun-12 15:00N 40°38' W 074°08'2 0.2
2018-Jun-12 05:43N 40°41' W 074°08'0 2.0
2018-Jun-12 05:29N 40°40' W 074°08'3 2.8
2018-Jun-12 04:21N 40°39' W 074°04'3 7.3
2018-Jun-12 03:57N 40°36' W 074°03'6 0.4
2018-Jun-11 14:33N 40°40' W 074°09'1 3.8
2018-Jun-11 14:13N 40°39' W 074°09'4 5.6
2018-Jun-11 13:33N 40°39' W 074°04'1 9.7
2018-Jun-11 13:29N 40°38' W 074°03'4 1.6
2018-Jun-11 10:58N 40°39' W 074°09'1 2.9
2018-Jun-11 10:30N 40°40' W 074°09'0 0.1
2018-Jun-11 09:57N 40°40' W 074°09'0 0.0
2018-Jun-11 09:30N 40°40' W 074°09'0 0.0
2018-Jun-11 08:59N 40°40' W 074°09'3 2.9
2018-Jun-11 08:04N 40°39' W 074°05'1 7.7
2018-Jun-11 07:58N 40°39' W 074°04'1 1.7
2018-Jun-11 07:14N 40°38' W 074°04'0 0.0
2018-Jun-11 07:00N 40°38' W 074°04'0 0.0
2018-Jun-11 06:31N 40°38' W 074°04'2 3.2
2018-Jun-11 06:01N 40°39' W 074°05'0 0.1
2018-Jun-11 05:30N 40°39' W 074°06'0 0.0
2018-Jun-11 05:00N 40°39' W 074°06'0 0.8
2018-Jun-11 04:21N 40°39' W 074°05'2 4.9
2018-Jun-11 04:00N 40°38' W 074°03'2 0.5
2018-Jun-10 23:28N 40°39' W 074°06'0 0.1
2018-Jun-10 22:34N 40°39' W 074°06'0 0.5
2018-Jun-10 22:31N 40°39' W 074°06'1 1.3
2018-Jun-10 21:22N 40°38' W 074°08'2 3.6
2018-Jun-10 20:55N 40°40' W 074°09'0 0.2
2018-Jun-10 20:30N 40°40' W 074°09'2 3.2
2018-Jun-10 19:52N 40°39' W 074°06'3 7.1
2018-Jun-10 19:31N 40°38' W 074°03'3 5.1
2018-Jun-10 18:50N 40°39' W 074°08'0 0.1
2018-Jun-10 18:16N 40°38' W 074°08'0 0.0
2018-Jun-10 17:58N 40°38' W 074°08'1 2.2
2018-Jun-10 17:25N 40°39' W 074°06'1 2.7
2018-Jun-10 17:00N 40°39' W 074°08'2 3.2
2018-Jun-10 16:29N 40°40' W 074°08'1 1.1
2018-Jun-10 16:01N 40°41' W 074°09'1 2.0
2018-Jun-10 15:28N 40°40' W 074°09'1 2.8
2018-Jun-10 15:01N 40°38' W 074°08'0 0.0
2018-Jun-10 13:59N 40°38' W 074°08'0 0.0
2018-Jun-10 13:28N 40°38' W 074°08'0 0.0
2018-Jun-10 13:00N 40°38' W 074°08'0 0.0
2018-Jun-10 12:20N 40°38' W 074°08'2 2.9
2018-Jun-10 11:48N 40°39' W 074°06'2 7.6
2018-Jun-10 11:31N 40°40' W 074°03'1 2.4
2018-Jun-10 10:55N 40°40' W 074°05'0 0.5
2018-Jun-10 10:29N 40°40' W 074°05'0 0.6
2018-Jun-10 10:01N 40°40' W 074°05'1 1.1
2018-Jun-10 09:30N 40°40' W 074°04'4 7.9
2018-Jun-10 09:00N 40°39' W 074°09'2 4.1
2018-Jun-10 08:31N 40°41' W 074°08'1 1.2
2018-Jun-10 07:49N 40°41' W 074°09'2 5.7
2018-Jun-10 07:30N 40°39' W 074°09'1 0.7
2018-Jun-10 05:59N 40°38' W 074°08'0 0.0
2018-Jun-10 05:30N 40°38' W 074°08'0 0.0
2018-Jun-10 03:55N 40°38' W 074°08'0 0.0
2018-Jun-10 03:20N 40°38' W 074°08'0 0.0
2018-Jun-10 03:00N 40°38' W 074°08'0 0.0
2018-Jun-10 02:26N 40°38' W 074°08'0 0.0
2018-Jun-10 01:47N 40°38' W 074°08'1 1.5
2018-Jun-10 00:49N 40°39' W 074°06'1 2.1
2018-Jun-10 00:30N 40°39' W 074°05'0 0.3
2018-Jun-10 00:00N 40°39' W 074°05'3 3.2
2018-Jun-09 23:12N 40°40' W 074°08'1 4.0
2018-Jun-09 22:59N 40°41' W 074°08'0 0.1
2018-Jun-09 21:57N 40°41' W 074°08'3 0.8
2018-Jun-09 18:36N 40°38' W 074°08'0 2.5
2018-Jun-09 18:27N 40°39' W 074°07'1 2.9
2018-Jun-09 18:00N 40°39' W 074°09'2 3.2
2018-Jun-09 17:31N 40°41' W 074°09'2 3.3
2018-Jun-09 17:00N 40°39' W 074°09'1 2.1
2018-Jun-09 16:29N 40°38' W 074°08'0 0.0
2018-Jun-09 15:56N 40°38' W 074°08'0 0.0
2018-Jun-09 13:40N 40°38' W 074°08'0 0.0
2018-Jun-09 13:27N 40°38' W 074°08'0 0.0
2018-Jun-09 13:00N 40°38' W 074°08'0 0.0
2018-Jun-09 12:30N 40°38' W 074°08'0 0.0
2018-Jun-09 11:55N 40°38' W 074°08'0 0.0
2018-Jun-09 11:15N 40°38' W 074°08'0 0.0
2018-Jun-09 10:59N 40°38' W 074°08'0 0.0
2018-Jun-09 10:14N 40°38' W 074°08'0 0.0
2018-Jun-09 09:56N 40°38' W 074°08'0 0.0
2018-Jun-09 09:28N 40°38' W 074°08'0 0.0
2018-Jun-09 08:59N 40°38' W 074°08'0 0.0
2018-Jun-09 08:30N 40°38' W 074°08'0 0.0
2018-Jun-09 08:00N 40°38' W 074°08'0 0.0
2018-Jun-09 07:23N 40°39' W 074°08'1 2.8
2018-Jun-09 07:01N 40°39' W 074°09'1 1.7
2018-Jun-09 06:30N 40°40' W 074°09'0 0.0
2018-Jun-09 06:01N 40°40' W 074°09'0 0.6
2018-Jun-09 05:28N 40°40' W 074°08'1 1.9
2018-Jun-09 05:01N 40°41' W 074°09'0 0.2
2018-Jun-09 04:31N 40°41' W 074°09'2 0.2
2018-Jun-08 18:01N 40°39' W 074°08'0 8.9
2018-Jun-08 18:00N 40°39' W 074°08'2 4.2
2018-Jun-08 17:25N 40°41' W 074°09'  
Track history (hours):
 
Tides and Currents Weather Stations Pressure Air Temp Water Temp Dewpoint Dewpoint Depression Visibility Wind Speed Wind Dir Waves Ship Positions

Kirby Moran

Owner: Moran Towing Corporation, New Canaan, CT. More information available from US FCC via Universal Licensing System and Coast Guard Vessel Documentation Center.

Last reported at 2018-Jun-18 17:14 UTC. Time now 2018-Jun-23 14:16 UTC.
Position N 40°38' W 074°08'.

Length 28 m; draft 5.2 m.

Type: Tug. MMSI: 367671080.

Date/timePositionNaut miles runAvg speedWind from/ knotsBaromVisibWave heightAir tempDewpointWater temp
2018-Jun-18 17:14N 40°38' W 074°08'0 0.0
2018-Jun-18 07:29N 40°38' W 074°08'3 5.9
2018-Jun-18 07:00N 40°39' W 074°04'1 1.8
2018-Jun-18 06:30N 40°40' W 074°04'1 1.0
2018-Jun-18 06:00N 40°40' W 074°05'0 0.0
2018-Jun-18 05:30N 40°40' W 074°05'2 4.5
2018-Jun-18 04:58N 40°39' W 074°07'1 0.1
2018-Jun-17 22:42N 40°38' W 074°08'0 0.0
2018-Jun-17 22:30N 40°38' W 074°08'1 0.2
2018-Jun-17 16:17N 40°39' W 074°09'2 2.1
2018-Jun-17 15:18N 40°41' W 074°09'2 5.3
2018-Jun-17 14:59N 40°39' W 074°09'1 1.0
2018-Jun-17 13:54N 40°38' W 074°08'0 0.0
2018-Jun-17 13:27N 40°38' W 074°08'0 0.0
2018-Jun-17 12:57N 40°38' W 074°08'0 0.0
2018-Jun-17 12:15N 40°38' W 074°08'0 0.0
2018-Jun-17 12:01N 40°38' W 074°08'0 0.0
2018-Jun-17 11:19N 40°38' W 074°08'0 0.0
2018-Jun-17 11:00N 40°38' W 074°08'0 0.0
2018-Jun-17 10:31N 40°38' W 074°08'0 0.0
2018-Jun-17 09:59N 40°38' W 074°08'0 0.0
2018-Jun-17 09:29N 40°38' W 074°08'0 0.0
2018-Jun-17 09:00N 40°38' W 074°08'0 0.0
2018-Jun-17 08:30N 40°38' W 074°08'0 0.0
2018-Jun-17 08:00N 40°38' W 074°08'0 0.0
2018-Jun-17 07:31N 40°38' W 074°08'0 0.0
2018-Jun-17 07:01N 40°38' W 074°08'0 0.0
2018-Jun-17 06:28N 40°38' W 074°08'0 0.0
2018-Jun-17 06:00N 40°38' W 074°08'0 0.0
2018-Jun-17 05:31N 40°38' W 074°08'0 0.0
2018-Jun-17 05:00N 40°38' W 074°08'0 0.0
2018-Jun-17 04:30N 40°38' W 074°08'0 0.0
2018-Jun-17 04:00N 40°38' W 074°08'0 0.0
2018-Jun-17 03:31N 40°38' W 074°08'1 1.2
2018-Jun-17 02:58N 40°39' W 074°07'2 2.9
2018-Jun-17 02:24N 40°40' W 074°09'1 2.1
2018-Jun-17 02:00N 40°41' W 074°09'0 0.2
2018-Jun-17 01:18N 40°41' W 074°09'0 1.5
2018-Jun-17 01:00N 40°40' W 074°08'2 1.7
2018-Jun-16 23:52N 40°38' W 074°08'0 0.0
2018-Jun-16 23:27N 40°38' W 074°08'0 0.0
2018-Jun-16 22:55N 40°38' W 074°08'0 0.0
2018-Jun-16 22:29N 40°38' W 074°08'0 0.0
2018-Jun-16 21:58N 40°38' W 074°08'0 0.0
2018-Jun-16 21:30N 40°38' W 074°08'0 0.0
2018-Jun-16 20:58N 40°38' W 074°08'0 0.0
2018-Jun-16 20:31N 40°38' W 074°08'0 0.0
2018-Jun-16 19:59N 40°38' W 074°08'0 0.0
2018-Jun-16 19:30N 40°38' W 074°08'0 0.0
2018-Jun-16 19:00N 40°38' W 074°08'1 2.0
2018-Jun-16 18:30N 40°39' W 074°09'1 3.0
2018-Jun-16 18:00N 40°40' W 074°08'1 1.3
2018-Jun-16 17:30N 40°41' W 074°09'0 0.0
2018-Jun-16 17:00N 40°41' W 074°09'0 0.1
2018-Jun-16 16:19N 40°41' W 074°09'1 3.5
2018-Jun-16 15:59N 40°40' W 074°09'1 2.8
2018-Jun-16 15:30N 40°41' W 074°09'1 1.7
2018-Jun-16 15:00N 40°40' W 074°08'2 3.4
2018-Jun-16 14:30N 40°39' W 074°08'3 6.3
2018-Jun-16 14:00N 40°39' W 074°04'3 5.8
2018-Jun-16 13:31N 40°37' W 074°03'4 7.8
2018-Jun-16 12:59N 40°39' W 074°07'0 0.3
2018-Jun-16 11:17N 40°38' W 074°08'310.6
2018-Jun-16 11:00N 40°39' W 074°04'1 2.4
2018-Jun-16 10:30N 40°40' W 074°05'0 0.3
2018-Jun-16 10:00N 40°40' W 074°05'2 4.4
2018-Jun-16 09:30N 40°39' W 074°07'1 1.4
2018-Jun-16 09:00N 40°38' W 074°08'0 0.0
2018-Jun-16 08:29N 40°38' W 074°08'0 0.0
2018-Jun-16 08:00N 40°38' W 074°08'0 0.0
2018-Jun-16 07:30N 40°38' W 074°08'0 0.0
2018-Jun-16 06:59N 40°38' W 074°08'0 0.0
2018-Jun-16 06:30N 40°38' W 074°08'0 0.0
2018-Jun-16 06:00N 40°38' W 074°08'0 0.0
2018-Jun-16 05:29N 40°38' W 074°08'0 0.0
2018-Jun-16 05:00N 40°38' W 074°08'0 0.0
2018-Jun-16 04:30N 40°38' W 074°08'0 0.0
2018-Jun-16 03:57N 40°38' W 074°08'3 7.3
2018-Jun-16 03:30N 40°38' W 074°12'0 0.0
2018-Jun-16 02:58N 40°38' W 074°12'1 1.2
2018-Jun-16 02:07N 40°39' W 074°11'1 5.0
2018-Jun-16 01:56N 40°39' W 074°10'3 6.3
2018-Jun-16 01:30N 40°39' W 074°06'3 5.0
2018-Jun-16 01:00N 40°38' W 074°03'0 0.0
2018-Jun-16 00:30N 40°38' W 074°04'3 5.5
2018-Jun-16 00:00N 40°39' W 074°07'1 1.6
2018-Jun-15 23:30N 40°38' W 074°08'0 0.0
2018-Jun-15 22:59N 40°38' W 074°08'0 0.0
2018-Jun-15 22:30N 40°38' W 074°08'0 0.0
2018-Jun-15 22:00N 40°38' W 074°08'0 0.0
2018-Jun-15 21:30N 40°38' W 074°08'0 0.0
2018-Jun-15 20:59N 40°38' W 074°08'0 0.0
2018-Jun-15 20:30N 40°38' W 074°08'0 0.0
2018-Jun-15 20:00N 40°38' W 074°08'0 0.0
2018-Jun-15 19:30N 40°38' W 074°08'0 0.0
2018-Jun-15 19:00N 40°38' W 074°08'0 0.0
2018-Jun-15 18:30N 40°38' W 074°08'0 0.0
2018-Jun-15 17:59N 40°38' W 074°08'0 0.0
2018-Jun-15 17:29N 40°38' W 074°08'0 0.5
2018-Jun-15 16:59N 40°39' W 074°08'1 1.4
2018-Jun-15 16:13N 40°39' W 074°09'1 3.5
2018-Jun-15 16:00N 40°39' W 074°09'3 5.9
2018-Jun-15 15:30N 40°39' W 074°05'2 3.9
2018-Jun-15 15:00N 40°38' W 074°03'1 2.1
2018-Jun-15 14:30N 40°39' W 074°04'1 2.4
2018-Jun-15 13:59N 40°39' W 074°05'0 0.9
2018-Jun-15 13:30N 40°39' W 074°05'1 2.6
2018-Jun-15 13:01N 40°38' W 074°03'3 6.8
2018-Jun-15 12:30N 40°38' W 074°08'0 0.0
2018-Jun-15 12:00N 40°38' W 074°08'0 0.0
2018-Jun-15 11:30N 40°38' W 074°08'0 0.0
2018-Jun-15 10:59N 40°38' W 074°08'0 0.0
2018-Jun-15 10:30N 40°38' W 074°08'1 1.6
2018-Jun-15 10:00N 40°39' W 074°09'2 4.3
2018-Jun-15 09:27N 40°41' W 074°09'0 0.9
2018-Jun-15 09:00N 40°41' W 074°09'2 4.2
2018-Jun-15 08:29N 40°38' W 074°09'3 5.4
2018-Jun-15 08:00N 40°39' W 074°05'3 6.6
2018-Jun-15 07:30N 40°36' W 074°03'3 6.4
2018-Jun-15 07:00N 40°39' W 074°05'2 4.2
2018-Jun-15 06:29N 40°38' W 074°08'0 0.0
2018-Jun-15 06:00N 40°38' W 074°08'1 2.9
2018-Jun-15 05:29N 40°40' W 074°08'1 2.8
2018-Jun-15 05:00N 40°41' W 074°09'0 0.4
2018-Jun-15 04:30N 40°41' W 074°09'3 5.1
2018-Jun-15 03:59N 40°38' W 074°08'0 0.0
2018-Jun-15 02:31N 40°38' W 074°08'0 0.0
2018-Jun-15 02:20N 40°38' W 074°08'0 0.0
2018-Jun-15 01:55N 40°38' W 074°08'0 0.0
2018-Jun-15 01:22N 40°38' W 074°08'1 1.0
2018-Jun-15 00:24N 40°39' W 074°07'2 5.3
2018-Jun-15 00:01N 40°40' W 074°05'1 2.1
2018-Jun-14 23:31N 40°40' W 074°03'1 2.6
2018-Jun-14 23:01N 40°40' W 074°05'2 4.2
2018-Jun-14 22:30N 40°39' W 074°07'1 1.5
2018-Jun-14 22:00N 40°38' W 074°08'1 0.5
2018-Jun-14 20:07N 40°39' W 074°07'1 7.3
2018-Jun-14 19:57N 40°39' W 074°08'2 4.1
2018-Jun-14 19:30N 40°40' W 074°08'1 1.7
2018-Jun-14 19:00N 40°41' W 074°09'0 0.8
2018-Jun-14 18:29N 40°41' W 074°09'2 4.7
2018-Jun-14 18:00N 40°38' W 074°08'1 2.5
2018-Jun-14 17:26N 40°40' W 074°09'0 0.4
2018-Jun-14 16:41N 40°40' W 074°09'0 0.4
2018-Jun-14 16:30N 40°40' W 074°09'1 2.9
2018-Jun-14 16:00N 40°39' W 074°08'3 5.8
2018-Jun-14 15:31N 40°39' W 074°04'0 0.6
2018-Jun-14 14:52N 40°39' W 074°04'4 7.6
2018-Jun-14 14:21N 40°41' W 074°08'0 0.9
2018-Jun-14 14:00N 40°41' W 074°09'0 0.0
2018-Jun-14 13:30N 40°41' W 074°09'1 1.9
2018-Jun-14 13:01N 40°40' W 074°08'2 2.8
2018-Jun-14 12:22N 40°39' W 074°06'2 5.1
2018-Jun-14 12:00N 40°39' W 074°04'3 5.0
2018-Jun-14 11:30N 40°37' W 074°03'4 7.5
2018-Jun-14 11:00N 40°39' W 074°07'1 1.2
2018-Jun-14 10:24N 40°38' W 074°08'0 0.0
2018-Jun-14 09:59N 40°38' W 074°08'0 0.0
2018-Jun-14 09:30N 40°38' W 074°08'0 0.0
2018-Jun-14 08:58N 40°38' W 074°08'0 0.0
2018-Jun-14 08:09N 40°38' W 074°08'0 0.0
2018-Jun-14 07:59N 40°38' W 074°08'0 0.0
2018-Jun-14 06:35N 40°38' W 074°08'0 0.0
2018-Jun-14 06:18N 40°38' W 074°08'0 0.0
2018-Jun-14 03:38N 40°38' W 074°08'0 0.0
2018-Jun-14 03:17N 40°38' W 074°08'2 0.5
2018-Jun-14 00:02N 40°39' W 074°06'010.7
2018-Jun-14 00:00N 40°39' W 074°05'1 2.7
2018-Jun-13 23:30N 40°40' W 074°04'1 1.3
2018-Jun-13 23:00N 40°40' W 074°05'2 4.7
2018-Jun-13 22:29N 40°39' W 074°07'0 0.6
2018-Jun-13 22:00N 40°38' W 074°08'0 0.0
2018-Jun-13 21:25N 40°38' W 074°08'0 0.0
2018-Jun-13 21:00N 40°38' W 074°08'0 0.0
2018-Jun-13 20:30N 40°38' W 074°08'0 0.0
2018-Jun-13 19:59N 40°38' W 074°08'0 0.0
2018-Jun-13 19:30N 40°38' W 074°08'0 0.0
2018-Jun-13 19:00N 40°38' W 074°08'0 0.0
2018-Jun-13 18:30N 40°38' W 074°08'0 0.0
2018-Jun-13 18:00N 40°39' W 074°08'0 0.0
2018-Jun-13 17:30N 40°39' W 074°08'0 0.0
2018-Jun-13 17:00N 40°39' W 074°08'0 0.0
2018-Jun-13 16:28N 40°39' W 074°08'0 0.0
2018-Jun-13 15:55N 40°39' W 074°08'0 0.0
2018-Jun-13 15:22N 40°39' W 074°08'0 0.0
2018-Jun-13 14:58N 40°39' W 074°08'0 0.0
2018-Jun-13 14:29N 40°39' W 074°08'1 1.4
2018-Jun-13 14:00N 40°38' W 074°09'2 1.1
2018-Jun-13 12:09N 40°39' W 074°11'2 5.0
2018-Jun-13 11:45N 40°39' W 074°09'3 6.2
2018-Jun-13 11:20N 40°39' W 074°05'2 6.0
2018-Jun-13 11:00N 40°38' W 074°03'1 1.8
2018-Jun-13 10:30N 40°37' W 074°03'3 5.7
2018-Jun-13 09:59N 40°40' W 074°04'0 0.0
2018-Jun-13 09:18N 40°40' W 074°04'1 2.0
2018-Jun-13 09:00N 40°40' W 074°05'0 0.2
2018-Jun-13 08:30N 40°40' W 074°05'2 3.6
2018-Jun-13 08:01N 40°39' W 074°03'1 1.8
2018-Jun-13 07:30N 40°38' W 074°04'2 3.1
2018-Jun-13 07:00N 40°39' W 074°05'3 2.5
2018-Jun-13 05:59N 40°40' W 074°08'1 1.6
2018-Jun-13 05:30N 40°41' W 074°09'0 0.0
2018-Jun-13 04:54N 40°41' W 074°09'1 3.3
2018-Jun-13 04:30N 40°40' W 074°09'1 0.8
2018-Jun-13 03:01N 40°38' W 074°08'0 0.1
2018-Jun-13 02:57N 40°38' W 074°08'0 0.0
2018-Jun-13 00:17N 40°38' W 074°08'0 0.0
2018-Jun-12 23:25N 40°38' W 074°08'1 2.1
2018-Jun-12 23:00N 40°39' W 074°07'0 0.1
2018-Jun-12 22:30N 40°39' W 074°07'0 0.0
2018-Jun-12 22:01N 40°39' W 074°07'1 2.9
2018-Jun-12 21:30N 40°39' W 074°05'1 2.6
2018-Jun-12 21:01N 40°40' W 074°05'1 1.0
2018-Jun-12 20:28N 40°40' W 074°04'3 6.4
2018-Jun-12 20:00N 40°37' W 074°03'3 5.1
2018-Jun-12 19:30N 40°39' W 074°06'2 0.5
2018-Jun-12 16:22N 40°38' W 074°08'0 0.0
2018-Jun-12 15:58N 40°38' W 074°08'0 0.0
2018-Jun-12 15:22N 40°38' W 074°08'0 0.0
2018-Jun-12 15:00N 40°38' W 074°08'2 0.2
2018-Jun-12 05:43N 40°41' W 074°08'0 2.0
2018-Jun-12 05:29N 40°40' W 074°08'3 2.8
2018-Jun-12 04:21N 40°39' W 074°04'3 7.3
2018-Jun-12 03:57N 40°36' W 074°03'6 0.4
2018-Jun-11 14:33N 40°40' W 074°09'1 3.8
2018-Jun-11 14:13N 40°39' W 074°09'4 5.6
2018-Jun-11 13:33N 40°39' W 074°04'1 9.7
2018-Jun-11 13:29N 40°38' W 074°03'4 1.6
2018-Jun-11 10:58N 40°39' W 074°09'1 2.9
2018-Jun-11 10:30N 40°40' W 074°09'0 0.1
2018-Jun-11 09:57N 40°40' W 074°09'0 0.0
2018-Jun-11 09:30N 40°40' W 074°09'0 0.0
2018-Jun-11 08:59N 40°40' W 074°09'3 2.9
2018-Jun-11 08:04N 40°39' W 074°05'1 7.7
2018-Jun-11 07:58N 40°39' W 074°04'1 1.7
2018-Jun-11 07:14N 40°38' W 074°04'0 0.0
2018-Jun-11 07:00N 40°38' W 074°04'0 0.0
2018-Jun-11 06:31N 40°38' W 074°04'2 3.2
2018-Jun-11 06:01N 40°39' W 074°05'0 0.1
2018-Jun-11 05:30N 40°39' W 074°06'0 0.0
2018-Jun-11 05:00N 40°39' W 074°06'0 0.8
2018-Jun-11 04:21N 40°39' W 074°05'2 4.9
2018-Jun-11 04:00N 40°38' W 074°03'2 0.5
2018-Jun-10 23:28N 40°39' W 074°06'0 0.1
2018-Jun-10 22:34N 40°39' W 074°06'0 0.5
2018-Jun-10 22:31N 40°39' W 074°06'1 1.3
2018-Jun-10 21:22N 40°38' W 074°08'2 3.6
2018-Jun-10 20:55N 40°40' W 074°09'0 0.2
2018-Jun-10 20:30N 40°40' W 074°09'2 3.2
2018-Jun-10 19:52N 40°39' W 074°06'3 7.1
2018-Jun-10 19:31N 40°38' W 074°03'3 5.1
2018-Jun-10 18:50N 40°39' W 074°08'0 0.1
2018-Jun-10 18:16N 40°38' W 074°08'0 0.0
2018-Jun-10 17:58N 40°38' W 074°08'1 2.2
2018-Jun-10 17:25N 40°39' W 074°06'1 2.7
2018-Jun-10 17:00N 40°39' W 074°08'2 3.2
2018-Jun-10 16:29N 40°40' W 074°08'1 1.1
2018-Jun-10 16:01N 40°41' W 074°09'1 2.0
2018-Jun-10 15:28N 40°40' W 074°09'1 2.8
2018-Jun-10 15:01N 40°38' W 074°08'0 0.0
2018-Jun-10 13:59N 40°38' W 074°08'0 0.0
2018-Jun-10 13:28N 40°38' W 074°08'0 0.0
2018-Jun-10 13:00N 40°38' W 074°08'0 0.0
2018-Jun-10 12:20N 40°38' W 074°08'2 2.9
2018-Jun-10 11:48N 40°39' W 074°06'2 7.6
2018-Jun-10 11:31N 40°40' W 074°03'1 2.4
2018-Jun-10 10:55N 40°40' W 074°05'0 0.5
2018-Jun-10 10:29N 40°40' W 074°05'0 0.6
2018-Jun-10 10:01N 40°40' W 074°05'1 1.1
2018-Jun-10 09:30N 40°40' W 074°04'4 7.9
2018-Jun-10 09:00N 40°39' W 074°09'2 4.1
2018-Jun-10 08:31N 40°41' W 074°08'1 1.2
2018-Jun-10 07:49N 40°41' W 074°09'2 5.7
2018-Jun-10 07:30N 40°39' W 074°09'1 0.7
2018-Jun-10 05:59N 40°38' W 074°08'0 0.0
2018-Jun-10 05:30N 40°38' W 074°08'0 0.0
2018-Jun-10 03:55N 40°38' W 074°08'0 0.0
2018-Jun-10 03:20N 40°38' W 074°08'0 0.0
2018-Jun-10 03:00N 40°38' W 074°08'0 0.0
2018-Jun-10 02:26N 40°38' W 074°08'0 0.0
2018-Jun-10 01:47N 40°38' W 074°08'1 1.5
2018-Jun-10 00:49N 40°39' W 074°06'1 2.1
2018-Jun-10 00:30N 40°39' W 074°05'0 0.3
2018-Jun-10 00:00N 40°39' W 074°05'3 3.2
2018-Jun-09 23:12N 40°40' W 074°08'1 4.0
2018-Jun-09 22:59N 40°41' W 074°08'0 0.1
2018-Jun-09 21:57N 40°41' W 074°08'3 0.8
2018-Jun-09 18:36N 40°38' W 074°08'0 2.5
2018-Jun-09 18:27N 40°39' W 074°07'1 2.9
2018-Jun-09 18:00N 40°39' W 074°09'2 3.2
2018-Jun-09 17:31N 40°41' W 074°09'2 3.3
2018-Jun-09 17:00N 40°39' W 074°09'1 2.1
2018-Jun-09 16:29N 40°38' W 074°08'0 0.0
2018-Jun-09 15:56N 40°38' W 074°08'0 0.0
2018-Jun-09 13:40N 40°38' W 074°08'0 0.0
2018-Jun-09 13:27N 40°38' W 074°08'0 0.0
2018-Jun-09 13:00N 40°38' W 074°08'0 0.0
2018-Jun-09 12:30N 40°38' W 074°08'0 0.0
2018-Jun-09 11:55N 40°38' W 074°08'0 0.0
2018-Jun-09 11:15N 40°38' W 074°08'0 0.0
2018-Jun-09 10:59N 40°38' W 074°08'0 0.0
2018-Jun-09 10:14N 40°38' W 074°08'0 0.0
2018-Jun-09 09:56N 40°38' W 074°08'0 0.0
2018-Jun-09 09:28N 40°38' W 074°08'0 0.0
2018-Jun-09 08:59N 40°38' W 074°08'0 0.0
2018-Jun-09 08:30N 40°38' W 074°08'0 0.0
2018-Jun-09 08:00N 40°38' W 074°08'0 0.0
2018-Jun-09 07:23N 40°39' W 074°08'1 2.8
2018-Jun-09 07:01N 40°39' W 074°09'1 1.7
2018-Jun-09 06:30N 40°40' W 074°09'0 0.0
2018-Jun-09 06:01N 40°40' W 074°09'0 0.6
2018-Jun-09 05:28N 40°40' W 074°08'1 1.9
2018-Jun-09 05:01N 40°41' W 074°09'0 0.2
2018-Jun-09 04:31N 40°41' W 074°09'2 0.2
2018-Jun-08 18:01N 40°39' W 074°08'0 8.9
2018-Jun-08 18:00N 40°39' W 074°08'2 4.2
2018-Jun-08 17:25N 40°41' W 074°09'  

Dump ship's entire track history